sensor_id;sensor_type;location;lat;lon;timestamp;P1;durP1;ratioP1;P2;durP2;ratioP2
60336;SDS011;46978;50.288;28.624;2023-05-17T00:00:13;21.74;;;11.11;;
60336;SDS011;46978;50.288;28.624;2023-05-17T00:01:16;20.77;;;10.74;;
60336;SDS011;46978;50.288;28.624;2023-05-17T00:02:17;21.44;;;10.09;;
60336;SDS011;46978;50.288;28.624;2023-05-17T00:03:19;17.54;;;9.81;;
60336;SDS011;46978;50.288;28.624;2023-05-17T00:04:20;15.66;;;9.76;;
60336;SDS011;46978;50.288;28.624;2023-05-17T00:05:22;18.26;;;10.14;;
60336;SDS011;46978;50.288;28.624;2023-05-17T00:06:24;19.21;;;9.93;;
60336;SDS011;46978;50.288;28.624;2023-05-17T00:07:26;19.64;;;9.89;;
60336;SDS011;46978;50.288;28.624;2023-05-17T00:08:27;18.53;;;10.25;;
60336;SDS011;46978;50.288;28.624;2023-05-17T00:09:29;18.66;;;10.49;;
60336;SDS011;46978;50.288;28.624;2023-05-17T00:10:30;22.66;;;12.93;;
60336;SDS011;46978;50.288;28.624;2023-05-17T00:11:32;21.08;;;13.95;;
60336;SDS011;46978;50.288;28.624;2023-05-17T00:12:34;17.64;;;12.71;;
60336;SDS011;46978;50.288;28.624;2023-05-17T00:13:35;20.69;;;14.04;;
60336;SDS011;46978;50.288;28.624;2023-05-17T00:14:37;21.64;;;13.38;;
60336;SDS011;46978;50.288;28.624;2023-05-17T00:15:39;19.27;;;12.90;;
60336;SDS011;46978;50.288;28.624;2023-05-17T00:16:40;18.87;;;12.22;;
60336;SDS011;46978;50.288;28.624;2023-05-17T00:17:42;18.63;;;12.17;;
60336;SDS011;46978;50.288;28.624;2023-05-17T00:18:44;19.09;;;12.24;;
60336;SDS011;46978;50.288;28.624;2023-05-17T00:19:45;18.79;;;12.54;;
60336;SDS011;46978;50.288;28.624;2023-05-17T00:20:47;22.62;;;13.34;;
60336;SDS011;46978;50.288;28.624;2023-05-17T00:21:48;16.66;;;11.96;;
60336;SDS011;46978;50.288;28.624;2023-05-17T00:22:50;21.61;;;13.00;;
60336;SDS011;46978;50.288;28.624;2023-05-17T00:23:52;19.24;;;11.90;;
60336;SDS011;46978;50.288;28.624;2023-05-17T00:24:54;17.09;;;11.90;;
60336;SDS011;46978;50.288;28.624;2023-05-17T00:25:55;18.34;;;11.76;;
60336;SDS011;46978;50.288;28.624;2023-05-17T00:26:57;17.39;;;11.98;;
60336;SDS011;46978;50.288;28.624;2023-05-17T00:27:58;18.68;;;11.57;;
60336;SDS011;46978;50.288;28.624;2023-05-17T00:29:00;18.77;;;11.66;;
60336;SDS011;46978;50.288;28.624;2023-05-17T00:30:02;20.42;;;11.19;;
60336;SDS011;46978;50.288;28.624;2023-05-17T00:31:04;21.17;;;12.00;;
60336;SDS011;46978;50.288;28.624;2023-05-17T00:32:06;16.54;;;11.16;;
60336;SDS011;46978;50.288;28.624;2023-05-17T00:33:07;19.30;;;11.39;;
60336;SDS011;46978;50.288;28.624;2023-05-17T00:34:09;18.99;;;11.81;;
60336;SDS011;46978;50.288;28.624;2023-05-17T00:35:11;16.94;;;11.10;;
60336;SDS011;46978;50.288;28.624;2023-05-17T00:36:13;18.36;;;10.93;;
60336;SDS011;46978;50.288;28.624;2023-05-17T00:37:15;16.26;;;10.71;;
60336;SDS011;46978;50.288;28.624;2023-05-17T00:38:17;14.00;;;9.77;;
60336;SDS011;46978;50.288;28.624;2023-05-17T00:39:18;18.86;;;10.39;;
60336;SDS011;46978;50.288;28.624;2023-05-17T00:40:20;16.39;;;10.08;;
60336;SDS011;46978;50.288;28.624;2023-05-17T00:41:22;18.39;;;9.83;;
60336;SDS011;46978;50.288;28.624;2023-05-17T00:42:23;14.76;;;9.32;;
60336;SDS011;46978;50.288;28.624;2023-05-17T00:43:25;13.88;;;9.02;;
60336;SDS011;46978;50.288;28.624;2023-05-17T00:44:27;14.41;;;8.01;;
60336;SDS011;46978;50.288;28.624;2023-05-17T00:45:29;14.67;;;8.36;;
60336;SDS011;46978;50.288;28.624;2023-05-17T00:46:30;14.95;;;8.78;;
60336;SDS011;46978;50.288;28.624;2023-05-17T00:47:32;14.38;;;8.30;;
60336;SDS011;46978;50.288;28.624;2023-05-17T00:48:33;13.22;;;7.08;;
60336;SDS011;46978;50.288;28.624;2023-05-17T00:49:35;12.35;;;7.65;;
60336;SDS011;46978;50.288;28.624;2023-05-17T00:50:37;11.41;;;6.91;;
60336;SDS011;46978;50.288;28.624;2023-05-17T00:51:39;14.30;;;6.96;;
60336;SDS011;46978;50.288;28.624;2023-05-17T00:52:41;11.57;;;6.81;;
60336;SDS011;46978;50.288;28.624;2023-05-17T00:53:43;15.32;;;6.92;;
60336;SDS011;46978;50.288;28.624;2023-05-17T00:54:45;10.53;;;6.79;;
60336;SDS011;46978;50.288;28.624;2023-05-17T00:55:46;11.54;;;6.34;;
60336;SDS011;46978;50.288;28.624;2023-05-17T00:56:49;12.84;;;6.60;;
60336;SDS011;46978;50.288;28.624;2023-05-17T00:57:51;12.81;;;6.01;;
60336;SDS011;46978;50.288;28.624;2023-05-17T00:58:53;13.41;;;5.90;;
60336;SDS011;46978;50.288;28.624;2023-05-17T00:59:54;11.92;;;5.94;;
60336;SDS011;46978;50.288;28.624;2023-05-17T01:00:57;10.55;;;5.79;;
60336;SDS011;46978;50.288;28.624;2023-05-17T01:01:59;11.82;;;5.75;;
60336;SDS011;46978;50.288;28.624;2023-05-17T01:03:02;10.03;;;5.05;;
60336;SDS011;46978;50.288;28.624;2023-05-17T01:04:03;11.09;;;4.71;;
60336;SDS011;46978;50.288;28.624;2023-05-17T01:05:05;10.57;;;4.44;;
60336;SDS011;46978;50.288;28.624;2023-05-17T01:06:07;10.99;;;4.79;;
60336;SDS011;46978;50.288;28.624;2023-05-17T01:07:09;7.79;;;4.74;;
60336;SDS011;46978;50.288;28.624;2023-05-17T01:08:11;7.88;;;4.54;;
60336;SDS011;46978;50.288;28.624;2023-05-17T01:09:12;9.12;;;4.67;;
60336;SDS011;46978;50.288;28.624;2023-05-17T01:10:14;11.44;;;4.79;;
60336;SDS011;46978;50.288;28.624;2023-05-17T01:13:54;8.25;;;4.49;;
60336;SDS011;46978;50.288;28.624;2023-05-17T01:15:17;9.95;;;5.75;;
60336;SDS011;46978;50.288;28.624;2023-05-17T01:16:32;10.95;;;5.28;;
60336;SDS011;46978;50.288;28.624;2023-05-17T01:20:28;11.39;;;4.64;;
60336;SDS011;46978;50.288;28.624;2023-05-17T01:25:53;9.72;;;4.34;;
60336;SDS011;46978;50.288;28.624;2023-05-17T01:28:26;9.87;;;4.59;;
60336;SDS011;46978;50.288;28.624;2023-05-17T01:29:30;9.00;;;4.53;;
60336;SDS011;46978;50.288;28.624;2023-05-17T01:30:35;12.02;;;4.67;;
60336;SDS011;46978;50.288;28.624;2023-05-17T01:33:00;11.88;;;5.23;;
60336;SDS011;46978;50.288;28.624;2023-05-17T01:34:07;7.80;;;4.58;;
60336;SDS011;46978;50.288;28.624;2023-05-17T01:35:10;12.32;;;4.90;;
60336;SDS011;46978;50.288;28.624;2023-05-17T01:36:12;11.48;;;4.66;;
60336;SDS011;46978;50.288;28.624;2023-05-17T01:37:14;9.78;;;4.84;;
60336;SDS011;46978;50.288;28.624;2023-05-17T01:38:16;12.11;;;4.84;;
60336;SDS011;46978;50.288;28.624;2023-05-17T01:39:17;9.32;;;4.81;;
60336;SDS011;46978;50.288;28.624;2023-05-17T01:40:19;11.53;;;4.39;;
60336;SDS011;46978;50.288;28.624;2023-05-17T01:41:26;10.18;;;4.47;;
60336;SDS011;46978;50.288;28.624;2023-05-17T01:42:30;9.77;;;4.73;;
60336;SDS011;46978;50.288;28.624;2023-05-17T01:45:02;8.59;;;4.43;;
60336;SDS011;46978;50.288;28.624;2023-05-17T01:47:32;8.36;;;4.68;;
60336;SDS011;46978;50.288;28.624;2023-05-17T01:48:44;7.47;;;4.31;;
60336;SDS011;46978;50.288;28.624;2023-05-17T01:49:52;8.76;;;4.26;;
60336;SDS011;46978;50.288;28.624;2023-05-17T01:50:55;12.07;;;4.78;;
60336;SDS011;46978;50.288;28.624;2023-05-17T01:52:04;10.22;;;4.36;;
60336;SDS011;46978;50.288;28.624;2023-05-17T01:53:24;8.76;;;4.38;;
60336;SDS011;46978;50.288;28.624;2023-05-17T01:54:30;9.78;;;4.41;;
60336;SDS011;46978;50.288;28.624;2023-05-17T01:56:57;9.07;;;4.51;;
60336;SDS011;46978;50.288;28.624;2023-05-17T01:57:57;9.01;;;4.26;;
60336;SDS011;46978;50.288;28.624;2023-05-17T01:59:01;7.88;;;4.26;;
60336;SDS011;46978;50.288;28.624;2023-05-17T02:00:06;7.27;;;4.59;;
60336;SDS011;46978;50.288;28.624;2023-05-17T02:01:09;7.29;;;4.13;;
60336;SDS011;46978;50.288;28.624;2023-05-17T02:02:13;8.81;;;4.62;;
60336;SDS011;46978;50.288;28.624;2023-05-17T02:03:17;9.82;;;4.58;;
60336;SDS011;46978;50.288;28.624;2023-05-17T02:04:20;9.44;;;4.36;;
60336;SDS011;46978;50.288;28.624;2023-05-17T02:05:22;9.51;;;4.36;;
60336;SDS011;46978;50.288;28.624;2023-05-17T02:06:23;7.85;;;4.26;;
60336;SDS011;46978;50.288;28.624;2023-05-17T02:07:25;9.95;;;4.69;;
60336;SDS011;46978;50.288;28.624;2023-05-17T02:08:27;9.79;;;4.61;;
60336;SDS011;46978;50.288;28.624;2023-05-17T02:09:28;8.01;;;4.44;;
60336;SDS011;46978;50.288;28.624;2023-05-17T02:10:30;7.82;;;4.23;;
60336;SDS011;46978;50.288;28.624;2023-05-17T02:11:32;6.84;;;4.34;;
60336;SDS011;46978;50.288;28.624;2023-05-17T02:12:33;7.87;;;4.01;;
60336;SDS011;46978;50.288;28.624;2023-05-17T02:13:35;9.26;;;4.05;;
60336;SDS011;46978;50.288;28.624;2023-05-17T02:14:36;9.14;;;4.63;;
60336;SDS011;46978;50.288;28.624;2023-05-17T02:15:38;8.76;;;4.36;;
60336;SDS011;46978;50.288;28.624;2023-05-17T02:16:40;11.57;;;4.28;;
60336;SDS011;46978;50.288;28.624;2023-05-17T02:17:42;6.74;;;4.21;;
60336;SDS011;46978;50.288;28.624;2023-05-17T02:18:43;7.04;;;4.09;;
60336;SDS011;46978;50.288;28.624;2023-05-17T02:19:45;9.53;;;4.71;;
60336;SDS011;46978;50.288;28.624;2023-05-17T02:20:47;10.39;;;4.34;;
60336;SDS011;46978;50.288;28.624;2023-05-17T02:21:48;7.22;;;4.01;;
60336;SDS011;46978;50.288;28.624;2023-05-17T02:22:49;7.47;;;4.46;;
60336;SDS011;46978;50.288;28.624;2023-05-17T02:23:51;6.70;;;4.20;;
60336;SDS011;46978;50.288;28.624;2023-05-17T02:24:53;11.25;;;4.71;;
60336;SDS011;46978;50.288;28.624;2023-05-17T02:25:54;7.15;;;3.92;;
60336;SDS011;46978;50.288;28.624;2023-05-17T02:26:56;9.10;;;4.35;;
60336;SDS011;46978;50.288;28.624;2023-05-17T02:27:58;9.38;;;4.23;;
60336;SDS011;46978;50.288;28.624;2023-05-17T02:28:59;10.67;;;4.16;;
60336;SDS011;46978;50.288;28.624;2023-05-17T02:30:01;10.03;;;4.29;;
60336;SDS011;46978;50.288;28.624;2023-05-17T02:31:03;8.07;;;3.86;;
60336;SDS011;46978;50.288;28.624;2023-05-17T02:32:05;8.21;;;4.03;;
60336;SDS011;46978;50.288;28.624;2023-05-17T02:33:07;7.77;;;3.95;;
60336;SDS011;46978;50.288;28.624;2023-05-17T02:34:08;8.02;;;4.46;;
60336;SDS011;46978;50.288;28.624;2023-05-17T02:35:10;9.39;;;4.45;;
60336;SDS011;46978;50.288;28.624;2023-05-17T02:36:12;7.43;;;4.15;;
60336;SDS011;46978;50.288;28.624;2023-05-17T02:37:13;7.41;;;3.61;;
60336;SDS011;46978;50.288;28.624;2023-05-17T02:38:15;9.66;;;4.05;;
60336;SDS011;46978;50.288;28.624;2023-05-17T02:39:17;8.49;;;3.92;;
60336;SDS011;46978;50.288;28.624;2023-05-17T02:40:19;7.95;;;4.32;;
60336;SDS011;46978;50.288;28.624;2023-05-17T02:41:20;7.96;;;3.77;;
60336;SDS011;46978;50.288;28.624;2023-05-17T02:42:22;7.17;;;3.99;;
60336;SDS011;46978;50.288;28.624;2023-05-17T02:43:23;9.09;;;3.88;;
60336;SDS011;46978;50.288;28.624;2023-05-17T02:44:25;8.90;;;4.14;;
60336;SDS011;46978;50.288;28.624;2023-05-17T02:45:26;5.59;;;3.49;;
60336;SDS011;46978;50.288;28.624;2023-05-17T02:46:28;5.88;;;3.54;;
60336;SDS011;46978;50.288;28.624;2023-05-17T02:47:30;9.00;;;3.87;;
60336;SDS011;46978;50.288;28.624;2023-05-17T02:48:31;8.41;;;3.87;;
60336;SDS011;46978;50.288;28.624;2023-05-17T02:49:33;8.59;;;3.73;;
60336;SDS011;46978;50.288;28.624;2023-05-17T02:50:35;8.96;;;3.77;;
60336;SDS011;46978;50.288;28.624;2023-05-17T02:51:36;6.86;;;4.24;;
60336;SDS011;46978;50.288;28.624;2023-05-17T02:52:38;6.89;;;3.66;;
60336;SDS011;46978;50.288;28.624;2023-05-17T02:53:39;8.19;;;3.73;;
60336;SDS011;46978;50.288;28.624;2023-05-17T02:54:41;7.73;;;3.74;;
60336;SDS011;46978;50.288;28.624;2023-05-17T02:55:43;8.29;;;3.79;;
60336;SDS011;46978;50.288;28.624;2023-05-17T02:56:44;6.22;;;3.74;;
60336;SDS011;46978;50.288;28.624;2023-05-17T02:57:46;7.23;;;3.57;;
60336;SDS011;46978;50.288;28.624;2023-05-17T02:58:47;6.06;;;3.56;;
60336;SDS011;46978;50.288;28.624;2023-05-17T02:59:49;9.07;;;4.09;;
60336;SDS011;46978;50.288;28.624;2023-05-17T03:00:51;8.72;;;3.64;;
60336;SDS011;46978;50.288;28.624;2023-05-17T03:01:52;7.02;;;3.95;;
60336;SDS011;46978;50.288;28.624;2023-05-17T03:02:54;7.44;;;3.34;;
60336;SDS011;46978;50.288;28.624;2023-05-17T03:03:55;7.29;;;3.53;;
60336;SDS011;46978;50.288;28.624;2023-05-17T03:04:57;6.99;;;3.39;;
60336;SDS011;46978;50.288;28.624;2023-05-17T03:05:59;7.84;;;3.46;;
60336;SDS011;46978;50.288;28.624;2023-05-17T03:07:01;7.07;;;3.90;;
60336;SDS011;46978;50.288;28.624;2023-05-17T03:08:02;6.89;;;3.79;;
60336;SDS011;46978;50.288;28.624;2023-05-17T03:09:04;7.89;;;3.39;;
60336;SDS011;46978;50.288;28.624;2023-05-17T03:10:06;5.79;;;3.31;;
60336;SDS011;46978;50.288;28.624;2023-05-17T03:11:08;8.23;;;3.54;;
60336;SDS011;46978;50.288;28.624;2023-05-17T03:12:10;6.69;;;3.64;;
60336;SDS011;46978;50.288;28.624;2023-05-17T03:13:12;7.51;;;3.46;;
60336;SDS011;46978;50.288;28.624;2023-05-17T03:14:13;7.50;;;3.65;;
60336;SDS011;46978;50.288;28.624;2023-05-17T03:15:14;7.01;;;3.24;;
60336;SDS011;46978;50.288;28.624;2023-05-17T03:16:17;8.07;;;3.53;;
60336;SDS011;46978;50.288;28.624;2023-05-17T03:17:19;6.97;;;3.37;;
60336;SDS011;46978;50.288;28.624;2023-05-17T03:18:20;7.57;;;3.57;;
60336;SDS011;46978;50.288;28.624;2023-05-17T03:19:22;5.77;;;3.51;;
60336;SDS011;46978;50.288;28.624;2023-05-17T03:20:24;6.58;;;3.69;;
60336;SDS011;46978;50.288;28.624;2023-05-17T03:21:26;8.29;;;3.75;;
60336;SDS011;46978;50.288;28.624;2023-05-17T03:22:28;6.00;;;2.87;;
60336;SDS011;46978;50.288;28.624;2023-05-17T03:23:29;6.49;;;3.39;;
60336;SDS011;46978;50.288;28.624;2023-05-17T03:24:30;6.46;;;3.68;;
60336;SDS011;46978;50.288;28.624;2023-05-17T03:25:32;10.91;;;3.51;;
60336;SDS011;46978;50.288;28.624;2023-05-17T03:26:34;7.56;;;4.10;;
60336;SDS011;46978;50.288;28.624;2023-05-17T03:27:35;5.79;;;3.48;;
60336;SDS011;46978;50.288;28.624;2023-05-17T03:28:37;6.39;;;3.41;;
60336;SDS011;46978;50.288;28.624;2023-05-17T03:29:38;7.35;;;3.08;;
60336;SDS011;46978;50.288;28.624;2023-05-17T03:30:40;6.82;;;3.64;;
60336;SDS011;46978;50.288;28.624;2023-05-17T03:31:42;7.04;;;3.54;;
60336;SDS011;46978;50.288;28.624;2023-05-17T03:34:05;6.57;;;3.48;;
60336;SDS011;46978;50.288;28.624;2023-05-17T03:35:07;8.79;;;3.50;;
60336;SDS011;46978;50.288;28.624;2023-05-17T03:36:10;8.59;;;3.58;;
60336;SDS011;46978;50.288;28.624;2023-05-17T03:37:11;8.66;;;3.74;;
60336;SDS011;46978;50.288;28.624;2023-05-17T03:38:13;8.24;;;3.68;;
60336;SDS011;46978;50.288;28.624;2023-05-17T03:39:14;6.45;;;3.44;;
60336;SDS011;46978;50.288;28.624;2023-05-17T03:40:17;8.10;;;3.85;;
60336;SDS011;46978;50.288;28.624;2023-05-17T03:41:19;8.56;;;3.94;;
60336;SDS011;46978;50.288;28.624;2023-05-17T03:42:20;7.72;;;3.83;;
60336;SDS011;46978;50.288;28.624;2023-05-17T03:43:22;7.19;;;3.53;;
60336;SDS011;46978;50.288;28.624;2023-05-17T03:44:24;9.54;;;3.85;;
60336;SDS011;46978;50.288;28.624;2023-05-17T03:45:25;6.94;;;3.37;;
60336;SDS011;46978;50.288;28.624;2023-05-17T03:46:27;8.00;;;3.65;;
60336;SDS011;46978;50.288;28.624;2023-05-17T03:47:29;6.79;;;3.84;;
60336;SDS011;46978;50.288;28.624;2023-05-17T03:48:30;7.56;;;3.64;;
60336;SDS011;46978;50.288;28.624;2023-05-17T03:49:32;7.64;;;3.44;;
60336;SDS011;46978;50.288;28.624;2023-05-17T03:50:34;8.49;;;3.39;;
60336;SDS011;46978;50.288;28.624;2023-05-17T03:51:36;7.39;;;3.17;;
60336;SDS011;46978;50.288;28.624;2023-05-17T03:52:37;6.17;;;3.30;;
60336;SDS011;46978;50.288;28.624;2023-05-17T03:53:39;6.18;;;3.39;;
60336;SDS011;46978;50.288;28.624;2023-05-17T03:54:40;7.18;;;3.24;;
60336;SDS011;46978;50.288;28.624;2023-05-17T03:55:42;7.84;;;3.66;;
60336;SDS011;46978;50.288;28.624;2023-05-17T03:56:43;6.56;;;3.36;;
60336;SDS011;46978;50.288;28.624;2023-05-17T03:57:45;6.86;;;3.51;;
60336;SDS011;46978;50.288;28.624;2023-05-17T03:58:46;7.34;;;3.27;;
60336;SDS011;46978;50.288;28.624;2023-05-17T03:59:48;7.88;;;3.29;;
60336;SDS011;46978;50.288;28.624;2023-05-17T04:00:50;8.45;;;3.34;;
60336;SDS011;46978;50.288;28.624;2023-05-17T04:01:51;8.85;;;3.26;;
60336;SDS011;46978;50.288;28.624;2023-05-17T04:02:53;6.75;;;3.31;;
60336;SDS011;46978;50.288;28.624;2023-05-17T04:03:54;6.26;;;3.23;;
60336;SDS011;46978;50.288;28.624;2023-05-17T04:04:56;8.00;;;3.59;;
60336;SDS011;46978;50.288;28.624;2023-05-17T04:06:02;8.56;;;3.71;;
60336;SDS011;46978;50.288;28.624;2023-05-17T04:07:04;7.61;;;3.17;;
60336;SDS011;46978;50.288;28.624;2023-05-17T04:08:06;9.26;;;3.29;;
60336;SDS011;46978;50.288;28.624;2023-05-17T04:09:07;7.67;;;3.67;;
60336;SDS011;46978;50.288;28.624;2023-05-17T04:10:09;9.48;;;3.32;;
60336;SDS011;46978;50.288;28.624;2023-05-17T04:11:11;7.86;;;3.29;;
60336;SDS011;46978;50.288;28.624;2023-05-17T04:12:13;8.05;;;3.19;;
60336;SDS011;46978;50.288;28.624;2023-05-17T04:13:14;5.95;;;2.94;;
60336;SDS011;46978;50.288;28.624;2023-05-17T04:14:20;7.77;;;3.21;;
60336;SDS011;46978;50.288;28.624;2023-05-17T04:15:19;7.31;;;3.41;;
60336;SDS011;46978;50.288;28.624;2023-05-17T04:16:21;7.41;;;3.57;;
60336;SDS011;46978;50.288;28.624;2023-05-17T04:17:23;9.19;;;3.40;;
60336;SDS011;46978;50.288;28.624;2023-05-17T04:18:24;7.66;;;3.38;;
60336;SDS011;46978;50.288;28.624;2023-05-17T04:19:26;9.19;;;3.51;;
60336;SDS011;46978;50.288;28.624;2023-05-17T04:20:28;7.66;;;3.41;;
60336;SDS011;46978;50.288;28.624;2023-05-17T04:21:29;8.30;;;3.28;;
60336;SDS011;46978;50.288;28.624;2023-05-17T04:22:31;10.69;;;3.06;;
60336;SDS011;46978;50.288;28.624;2023-05-17T04:23:33;7.31;;;3.03;;
60336;SDS011;46978;50.288;28.624;2023-05-17T04:24:35;6.27;;;3.29;;
60336;SDS011;46978;50.288;28.624;2023-05-17T04:25:37;7.66;;;3.34;;
60336;SDS011;46978;50.288;28.624;2023-05-17T04:26:38;5.49;;;3.09;;
60336;SDS011;46978;50.288;28.624;2023-05-17T04:27:40;5.22;;;2.92;;
60336;SDS011;46978;50.288;28.624;2023-05-17T04:28:41;5.51;;;3.16;;
60336;SDS011;46978;50.288;28.624;2023-05-17T04:29:43;8.39;;;3.31;;
60336;SDS011;46978;50.288;28.624;2023-05-17T04:30:45;5.73;;;2.76;;
60336;SDS011;46978;50.288;28.624;2023-05-17T04:31:52;7.14;;;3.37;;
60336;SDS011;46978;50.288;28.624;2023-05-17T04:32:54;8.52;;;3.44;;
60336;SDS011;46978;50.288;28.624;2023-05-17T04:33:56;6.19;;;3.11;;
60336;SDS011;46978;50.288;28.624;2023-05-17T04:34:57;7.79;;;3.39;;
60336;SDS011;46978;50.288;28.624;2023-05-17T04:35:59;7.01;;;3.09;;
60336;SDS011;46978;50.288;28.624;2023-05-17T04:37:00;6.84;;;3.42;;
60336;SDS011;46978;50.288;28.624;2023-05-17T04:38:02;6.76;;;3.24;;
60336;SDS011;46978;50.288;28.624;2023-05-17T04:39:03;6.60;;;3.27;;
60336;SDS011;46978;50.288;28.624;2023-05-17T04:40:08;5.59;;;3.23;;
60336;SDS011;46978;50.288;28.624;2023-05-17T04:41:10;6.42;;;2.98;;
60336;SDS011;46978;50.288;28.624;2023-05-17T04:42:11;8.86;;;3.52;;
60336;SDS011;46978;50.288;28.624;2023-05-17T04:43:13;7.96;;;2.99;;
60336;SDS011;46978;50.288;28.624;2023-05-17T04:44:14;4.94;;;3.32;;
60336;SDS011;46978;50.288;28.624;2023-05-17T04:45:16;6.94;;;3.56;;
60336;SDS011;46978;50.288;28.624;2023-05-17T04:46:18;8.57;;;3.63;;
60336;SDS011;46978;50.288;28.624;2023-05-17T04:47:19;7.03;;;2.94;;
60336;SDS011;46978;50.288;28.624;2023-05-17T04:48:21;10.19;;;3.17;;
60336;SDS011;46978;50.288;28.624;2023-05-17T04:49:22;6.81;;;3.12;;
60336;SDS011;46978;50.288;28.624;2023-05-17T04:50:24;8.25;;;3.46;;
60336;SDS011;46978;50.288;28.624;2023-05-17T04:51:26;7.28;;;3.35;;
60336;SDS011;46978;50.288;28.624;2023-05-17T04:52:29;5.89;;;3.13;;
60336;SDS011;46978;50.288;28.624;2023-05-17T04:53:31;7.93;;;3.18;;
60336;SDS011;46978;50.288;28.624;2023-05-17T04:54:33;6.57;;;3.39;;
60336;SDS011;46978;50.288;28.624;2023-05-17T04:55:34;7.21;;;3.08;;
60336;SDS011;46978;50.288;28.624;2023-05-17T04:56:36;6.84;;;3.13;;
60336;SDS011;46978;50.288;28.624;2023-05-17T04:57:38;11.24;;;3.41;;
60336;SDS011;46978;50.288;28.624;2023-05-17T04:58:39;7.39;;;3.42;;
60336;SDS011;46978;50.288;28.624;2023-05-17T04:59:41;9.95;;;3.46;;
60336;SDS011;46978;50.288;28.624;2023-05-17T05:00:43;6.09;;;3.05;;
60336;SDS011;46978;50.288;28.624;2023-05-17T05:03:06;7.02;;;3.14;;
60336;SDS011;46978;50.288;28.624;2023-05-17T05:04:08;6.40;;;3.05;;
60336;SDS011;46978;50.288;28.624;2023-05-17T05:05:09;10.96;;;3.42;;
60336;SDS011;46978;50.288;28.624;2023-05-17T05:06:11;8.31;;;3.99;;
60336;SDS011;46978;50.288;28.624;2023-05-17T05:07:13;6.95;;;3.41;;
60336;SDS011;46978;50.288;28.624;2023-05-17T05:08:14;6.47;;;3.27;;
60336;SDS011;46978;50.288;28.624;2023-05-17T05:09:16;8.21;;;3.71;;
60336;SDS011;46978;50.288;28.624;2023-05-17T05:10:18;8.51;;;4.00;;
60336;SDS011;46978;50.288;28.624;2023-05-17T05:11:20;8.85;;;3.90;;
60336;SDS011;46978;50.288;28.624;2023-05-17T05:12:21;6.23;;;3.56;;
60336;SDS011;46978;50.288;28.624;2023-05-17T05:13:23;7.22;;;3.88;;
60336;SDS011;46978;50.288;28.624;2023-05-17T05:14:24;8.12;;;3.99;;
60336;SDS011;46978;50.288;28.624;2023-05-17T05:15:26;10.11;;;3.91;;
60336;SDS011;46978;50.288;28.624;2023-05-17T05:16:28;8.15;;;3.90;;
60336;SDS011;46978;50.288;28.624;2023-05-17T05:17:29;8.14;;;3.77;;
60336;SDS011;46978;50.288;28.624;2023-05-17T05:18:31;7.85;;;3.88;;
60336;SDS011;46978;50.288;28.624;2023-05-17T05:20:37;6.69;;;4.08;;
60336;SDS011;46978;50.288;28.624;2023-05-17T05:21:39;7.64;;;3.89;;
60336;SDS011;46978;50.288;28.624;2023-05-17T05:22:40;8.46;;;3.98;;
60336;SDS011;46978;50.288;28.624;2023-05-17T05:23:42;9.46;;;4.19;;
60336;SDS011;46978;50.288;28.624;2023-05-17T05:24:43;7.59;;;4.08;;
60336;SDS011;46978;50.288;28.624;2023-05-17T05:25:45;6.09;;;3.83;;
60336;SDS011;46978;50.288;28.624;2023-05-17T05:26:47;6.83;;;3.96;;
60336;SDS011;46978;50.288;28.624;2023-05-17T05:27:48;5.70;;;3.79;;
60336;SDS011;46978;50.288;28.624;2023-05-17T05:28:50;8.59;;;4.71;;
60336;SDS011;46978;50.288;28.624;2023-05-17T05:29:52;6.44;;;3.61;;
60336;SDS011;46978;50.288;28.624;2023-05-17T05:32:16;8.89;;;3.83;;
60336;SDS011;46978;50.288;28.624;2023-05-17T05:33:18;8.96;;;4.04;;
60336;SDS011;46978;50.288;28.624;2023-05-17T05:34:19;8.84;;;3.71;;
60336;SDS011;46978;50.288;28.624;2023-05-17T05:36:43;6.84;;;3.84;;
60336;SDS011;46978;50.288;28.624;2023-05-17T05:37:44;7.89;;;3.56;;
60336;SDS011;46978;50.288;28.624;2023-05-17T05:38:46;7.53;;;3.21;;
60336;SDS011;46978;50.288;28.624;2023-05-17T05:39:48;8.47;;;3.59;;
60336;SDS011;46978;50.288;28.624;2023-05-17T05:40:50;6.81;;;3.50;;
60336;SDS011;46978;50.288;28.624;2023-05-17T05:41:52;8.14;;;3.21;;
60336;SDS011;46978;50.288;28.624;2023-05-17T05:42:53;6.36;;;3.31;;
60336;SDS011;46978;50.288;28.624;2023-05-17T05:43:55;7.35;;;3.35;;
60336;SDS011;46978;50.288;28.624;2023-05-17T05:44:57;6.41;;;3.10;;
60336;SDS011;46978;50.288;28.624;2023-05-17T05:45:58;5.29;;;3.11;;
60336;SDS011;46978;50.288;28.624;2023-05-17T05:47:00;7.45;;;3.39;;
60336;SDS011;46978;50.288;28.624;2023-05-17T05:48:02;7.84;;;3.43;;
60336;SDS011;46978;50.288;28.624;2023-05-17T05:49:03;6.31;;;3.29;;
60336;SDS011;46978;50.288;28.624;2023-05-17T05:50:06;5.69;;;3.48;;
60336;SDS011;46978;50.288;28.624;2023-05-17T05:51:08;7.11;;;3.84;;
60336;SDS011;46978;50.288;28.624;2023-05-17T05:52:11;8.43;;;3.92;;
60336;SDS011;46978;50.288;28.624;2023-05-17T05:53:14;6.28;;;3.27;;
60336;SDS011;46978;50.288;28.624;2023-05-17T05:54:16;7.64;;;3.53;;
60336;SDS011;46978;50.288;28.624;2023-05-17T05:55:17;6.99;;;3.55;;
60336;SDS011;46978;50.288;28.624;2023-05-17T05:56:19;11.14;;;3.41;;
60336;SDS011;46978;50.288;28.624;2023-05-17T05:57:21;7.36;;;3.26;;
60336;SDS011;46978;50.288;28.624;2023-05-17T05:58:22;7.62;;;3.40;;
60336;SDS011;46978;50.288;28.624;2023-05-17T05:59:24;7.35;;;3.19;;
60336;SDS011;46978;50.288;28.624;2023-05-17T06:00:26;9.96;;;3.54;;
60336;SDS011;46978;50.288;28.624;2023-05-17T06:01:27;9.07;;;3.29;;
60336;SDS011;46978;50.288;28.624;2023-05-17T06:02:29;7.31;;;3.54;;
60336;SDS011;46978;50.288;28.624;2023-05-17T06:03:30;7.95;;;3.20;;
60336;SDS011;46978;50.288;28.624;2023-05-17T06:04:32;5.90;;;3.29;;
60336;SDS011;46978;50.288;28.624;2023-05-17T06:05:33;7.20;;;3.18;;
60336;SDS011;46978;50.288;28.624;2023-05-17T06:06:35;11.70;;;3.70;;
60336;SDS011;46978;50.288;28.624;2023-05-17T06:07:37;6.72;;;3.01;;
60336;SDS011;46978;50.288;28.624;2023-05-17T06:10:00;7.28;;;3.06;;
60336;SDS011;46978;50.288;28.624;2023-05-17T06:11:01;7.59;;;3.10;;
60336;SDS011;46978;50.288;28.624;2023-05-17T06:12:03;8.46;;;3.11;;
60336;SDS011;46978;50.288;28.624;2023-05-17T06:13:05;7.93;;;3.51;;
60336;SDS011;46978;50.288;28.624;2023-05-17T06:14:07;5.83;;;2.95;;
60336;SDS011;46978;50.288;28.624;2023-05-17T06:15:08;9.70;;;3.12;;
60336;SDS011;46978;50.288;28.624;2023-05-17T06:16:12;6.60;;;2.85;;
60336;SDS011;46978;50.288;28.624;2023-05-17T06:17:14;9.08;;;3.03;;
60336;SDS011;46978;50.288;28.624;2023-05-17T06:18:15;8.05;;;3.21;;
60336;SDS011;46978;50.288;28.624;2023-05-17T06:19:17;7.59;;;3.17;;
60336;SDS011;46978;50.288;28.624;2023-05-17T06:20:18;8.97;;;3.26;;
60336;SDS011;46978;50.288;28.624;2023-05-17T06:21:20;7.29;;;3.06;;
60336;SDS011;46978;50.288;28.624;2023-05-17T06:22:22;7.52;;;2.98;;
60336;SDS011;46978;50.288;28.624;2023-05-17T06:23:26;7.87;;;3.27;;
60336;SDS011;46978;50.288;28.624;2023-05-17T06:24:27;7.23;;;3.16;;
60336;SDS011;46978;50.288;28.624;2023-05-17T06:25:29;7.99;;;3.14;;
60336;SDS011;46978;50.288;28.624;2023-05-17T06:26:30;6.45;;;2.92;;
60336;SDS011;46978;50.288;28.624;2023-05-17T06:27:32;6.97;;;3.30;;
60336;SDS011;46978;50.288;28.624;2023-05-17T06:28:33;5.96;;;3.04;;
60336;SDS011;46978;50.288;28.624;2023-05-17T06:29:36;8.10;;;2.71;;
60336;SDS011;46978;50.288;28.624;2023-05-17T06:30:38;6.24;;;3.37;;
60336;SDS011;46978;50.288;28.624;2023-05-17T06:31:40;6.91;;;3.28;;